Time;durP1;ratioP1;P1;durP2;ratioP2;P2;SDS_P1;SDS_P2;PMS_P1;PMS_P2;Temp;Humidity;BMP_temperature;BMP_pressure;BME280_temperature;BME280_humidity;BME280_pressure;Samples;Min_cycle;Max_cycle;Signal;HPM_P1;HPM_P2
2023/03/31 00:00:10;;;;;;;19.70;11.25;;;;;;;12.16;91.56;100286.59;5037849;28;20471;-48
2023/03/31 00:02:40;;;;;;;18.88;11.25;;;;;;;12.19;91.68;100279.56;5037920;28;20028;-48
2023/03/31 00:05:06;;;;;;;20.33;11.55;;;;;;;12.21;91.44;100271.75;5055523;28;20025;-47
2023/03/31 00:07:32;;;;;;;18.83;11.23;;;;;;;12.22;91.56;100267.03;5055567;28;20029;-45
2023/03/31 00:10:00;;;;;;;19.70;10.95;;;;;;;12.23;91.69;100257.56;5055718;28;20512;-48
2023/03/31 00:12:26;;;;;;;19.48;11.38;;;;;;;12.21;92.37;100262.63;5055598;28;20025;-49
2023/03/31 00:14:51;;;;;;;16.60;10.52;;;;;;;12.22;92.31;100258.69;5055453;28;20037;-47
2023/03/31 00:17:17;;;;;;;17.42;10.88;;;;;;;12.24;93.07;100251.66;5055411;28;20776;-45
2023/03/31 00:19:42;;;;;;;20.30;11.38;;;;;;;12.23;92.82;100246.47;5055463;28;20079;-45
2023/03/31 00:22:08;;;;;;;18.88;11.23;;;;;;;12.23;93.39;100232.59;5055297;28;20371;-47
2023/03/31 00:24:34;;;;;;;19.65;11.30;;;;;;;12.19;93.49;100213.03;5055221;28;20214;-45
2023/03/31 00:27:01;;;;;;;18.65;10.98;;;;;;;12.17;93.55;100216.13;5055418;28;20112;-45
2023/03/31 00:29:27;;;;;;;19.02;11.10;;;;;;;12.20;93.65;100219.41;5052056;28;20087;-44
2023/03/31 00:31:52;;;;;;;17.00;10.25;;;;;;;12.19;93.50;100210.25;5055137;28;20029;-47
2023/03/31 00:34:18;;;;;;;18.95;10.95;;;;;;;12.17;93.53;100205.03;5055087;28;20025;-46
2023/03/31 00:36:49;;;;;;;18.15;10.75;;;;;;;12.15;93.47;100198.22;5055039;28;20451;-47
2023/03/31 00:39:17;;;;;;;16.80;11.02;;;;;;;12.17;93.77;100201.47;5055192;28;20545;-45
2023/03/31 00:41:43;;;;;;;16.05;9.93;;;;;;;12.20;93.82;100192.47;5055057;28;20036;-48
2023/03/31 00:44:23;;;;;;;18.67;10.57;;;;;;;12.20;93.52;100186.91;5055271;28;20521;-46
2023/03/31 00:47:01;;;;;;;18.40;10.90;;;;;;;12.24;93.33;100178.75;5055151;28;20061;-46
2023/03/31 00:49:48;;;;;;;17.83;10.65;;;;;;;12.20;93.44;100164.72;5055110;28;20051;-44
2023/03/31 00:52:21;;;;;;;17.02;10.50;;;;;;;12.19;94.13;100165.88;5054933;28;20090;-45
2023/03/31 00:54:54;;;;;;;18.55;11.00;;;;;;;12.16;93.66;100153.50;5020768;28;20032;-46
2023/03/31 00:57:22;;;;;;;19.00;10.32;;;;;;;12.11;93.88;100150.09;5054852;28;20120;-47
2023/03/31 00:59:54;;;;;;;18.05;10.70;;;;;;;12.11;93.85;100156.47;5054752;28;20020;-48
2023/03/31 01:02:24;;;;;;;19.20;10.50;;;;;;;12.08;93.97;100148.81;5054727;28;20029;-48
2023/03/31 01:04:54;;;;;;;18.27;10.55;;;;;;;12.09;93.90;100144.91;5036755;28;20017;-47
2023/03/31 01:07:25;;;;;;;19.02;10.60;;;;;;;12.02;94.21;100134.31;5054894;28;20039;-48
2023/03/31 01:09:55;;;;;;;19.55;10.95;;;;;;;12.06;94.29;100145.56;5054646;28;20033;-47
2023/03/31 01:12:22;;;;;;;18.85;10.82;;;;;;;12.04;94.37;100130.41;5054704;28;20037;-46
2023/03/31 01:14:49;;;;;;;19.17;10.88;;;;;;;12.07;94.38;100125.00;5036773;28;20029;-45
2023/03/31 01:17:17;;;;;;;20.30;11.02;;;;;;;12.09;94.28;100124.69;5054560;28;20052;-45
2023/03/31 01:20:11;;;;;;;18.10;10.50;;;;;;;12.13;94.61;100122.84;5054335;28;20025;-43
2023/03/31 01:22:45;;;;;;;17.88;10.82;;;;;;;12.12;94.09;100112.91;5053966;28;20049;-47
2023/03/31 01:25:28;;;;;;;19.25;10.68;;;;;;;12.14;94.22;100110.63;5054248;28;20482;-45
2023/03/31 01:27:57;;;;;;;16.27;10.40;;;;;;;12.13;94.47;100103.44;5034289;28;20091;-45
2023/03/31 01:30:48;;;;;;;19.20;10.32;;;;;;;12.09;94.11;100088.66;5034178;28;20029;-47
2023/03/31 01:33:28;;;;;;;18.13;10.80;;;;;;;12.09;94.56;100094.19;5031096;28;20040;-45
2023/03/31 01:36:10;;;;;;;19.98;10.80;;;;;;;12.02;94.68;100078.88;5033915;28;20029;-43
2023/03/31 01:38:53;;;;;;;19.13;10.85;;;;;;;12.08;95.34;100087.03;5034011;28;20483;-44
2023/03/31 01:41:36;;;;;;;16.80;10.60;;;;;;;12.08;95.15;100078.72;5033844;28;20025;-43
2023/03/31 01:44:07;;;;;;;20.30;11.05;;;;;;;12.08;95.05;100071.19;5034121;28;20134;-43
2023/03/31 01:46:53;;;;;;;17.65;10.30;;;;;;;12.16;94.81;100064.78;5034081;28;20060;-48
2023/03/31 01:49:44;;;;;;;19.65;10.90;;;;;;;12.13;94.87;100057.16;5033727;28;20033;-43
2023/03/31 01:52:52;;;;;;;18.92;10.57;;;;;;;12.20;95.09;100055.78;5015904;28;20033;-46
2023/03/31 01:55:49;;;;;;;17.77;10.68;;;;;;;12.13;95.37;100059.09;4994344;28;20443;-48
2023/03/31 01:58:23;;;;;;;19.15;10.45;;;;;;;12.11;96.45;100037.25;5020621;28;20053;-45
2023/03/31 02:01:02;;;;;;;18.85;10.90;;;;;;;12.12;96.08;100030.56;5033695;28;20037;-44
2023/03/31 02:03:32;;;;;;;19.58;10.60;;;;;;;12.09;95.85;100027.66;5032445;28;20036;-48
2023/03/31 02:06:03;;;;;;;20.42;10.80;;;;;;;12.08;96.80;100017.72;5033582;28;20029;-46
2023/03/31 02:08:36;;;;;;;18.50;11.05;;;;;;;12.03;96.80;100007.63;5033517;28;20041;-47
2023/03/31 02:11:02;;;;;;;19.85;10.85;;;;;;;11.98;96.44;100000.34;5033679;28;20021;-48
2023/03/31 02:13:29;;;;;;;18.08;10.63;;;;;;;11.96;95.98;99996.22;5015629;28;20113;-46
2023/03/31 02:16:00;;;;;;;19.13;10.80;;;;;;;11.91;95.74;99980.59;5033311;28;20025;-48
2023/03/31 02:18:29;;;;;;;19.23;10.65;;;;;;;11.85;96.68;99970.88;5032647;28;20029;-46
2023/03/31 02:20:58;;;;;;;19.30;10.48;;;;;;;11.85;96.38;99974.44;5033194;28;20513;-47
2023/03/31 02:23:28;;;;;;;19.38;11.25;;;;;;;11.88;97.88;99966.59;5033149;28;20041;-45
2023/03/31 02:26:01;;;;;;;18.60;10.98;;;;;;;11.87;97.48;99951.94;5033371;28;20025;-48
2023/03/31 02:28:27;;;;;;;18.63;10.85;;;;;;;11.92;96.83;99948.97;5033085;28;20040;-47
2023/03/31 02:31:30;;;;;;;18.75;10.90;;;;;;;11.95;97.38;99931.66;5033010;28;20553;-46
2023/03/31 02:33:55;;;;;;;19.35;11.43;;;;;;;11.84;97.26;99936.00;5029474;28;20033;-48
2023/03/31 02:36:22;;;;;;;19.63;11.50;;;;;;;11.79;98.43;99914.81;5032881;28;20033;-46
2023/03/31 02:38:56;;;;;;;18.75;10.93;;;;;;;11.76;98.76;99909.94;5032877;28;20160;-48
2023/03/31 02:41:21;;;;;;;18.67;10.85;;;;;;;11.80;98.90;99905.38;5015050;28;20175;-48
2023/03/31 02:43:47;;;;;;;20.83;10.98;;;;;;;11.82;99.69;99900.31;5032760;28;20116;-48
2023/03/31 02:46:12;;;;;;;19.33;11.07;;;;;;;11.86;99.27;99892.13;5032831;28;20372;-46
2023/03/31 02:48:45;;;;;;;18.50;11.40;;;;;;;11.89;99.56;99882.31;5032802;28;20029;-46
2023/03/31 02:51:48;;;;;;;20.55;10.68;;;;;;;11.98;99.06;99878.38;5032769;28;20113;-46
2023/03/31 02:54:45;;;;;;;21.92;11.90;;;;;;;12.00;99.17;99862.19;5032692;28;20057;-48
2023/03/31 02:57:28;;;;;;;20.58;11.40;;;;;;;12.01;99.48;99860.25;5032503;28;20156;-45
2023/03/31 03:00:18;;;;;;;22.13;10.90;;;;;;;12.01;98.78;99847.19;5032625;28;20038;-47
2023/03/31 03:03:07;;;;;;;19.77;11.25;;;;;;;12.06;98.82;99843.38;5032315;28;20033;-46
2023/03/31 03:06:21;;;;;;;19.80;12.15;;;;;;;12.09;98.64;99831.63;5032517;28;20033;-48
2023/03/31 03:09:07;;;;;;;21.70;11.90;;;;;;;12.04;98.39;99828.25;4996830;28;20037;-45
2023/03/31 03:11:45;;;;;;;22.73;11.60;;;;;;;12.00;98.80;99819.81;5032349;28;20022;-49
2023/03/31 03:14:22;;;;;;;22.40;12.25;;;;;;;12.00;99.39;99811.50;5032405;28;20110;-48
2023/03/31 03:17:00;;;;;;;21.80;11.50;;;;;;;11.99;98.65;99807.09;5014378;28;20041;-45
2023/03/31 03:19:25;;;;;;;20.45;11.65;;;;;;;12.00;98.54;99803.97;5032279;28;20116;-47
2023/03/31 03:21:51;;;;;;;20.25;11.50;;;;;;;11.99;98.89;99796.84;5030708;28;20116;-47
2023/03/31 03:24:17;;;;;;;19.67;11.32;;;;;;;11.99;98.38;99796.84;5032024;28;20045;-46
2023/03/31 03:26:43;;;;;;;21.80;11.68;;;;;;;11.98;98.79;99795.22;5032158;28;20079;-48
2023/03/31 03:29:12;;;;;;;20.85;11.40;;;;;;;12.03;98.34;99796.97;5031362;28;20029;-44
2023/03/31 03:31:37;;;;;;;21.00;11.20;;;;;;;12.07;98.39;99803.44;5032026;28;20033;-44
2023/03/31 03:34:03;;;;;;;23.25;11.48;;;;;;;12.08;97.96;99795.94;5028781;28;20084;-47
2023/03/31 03:36:28;;;;;;;20.92;12.13;;;;;;;12.04;98.29;99783.91;5014062;28;20025;-46
2023/03/31 03:38:54;;;;;;;21.27;11.60;;;;;;;12.02;98.48;99787.81;5032051;28;20033;-46
2023/03/31 03:41:19;;;;;;;20.20;11.30;;;;;;;12.01;98.39;99779.84;5031950;28;20109;-44
2023/03/31 03:43:45;;;;;;;19.70;11.27;;;;;;;12.00;98.35;99772.69;5031894;28;20112;-45
2023/03/31 03:46:10;;;;;;;19.52;11.68;;;;;;;12.04;98.93;99765.31;5031722;28;20403;-45
2023/03/31 03:48:35;;;;;;;22.15;12.07;;;;;;;12.04;98.33;99762.56;5031797;28;20064;-45
2023/03/31 03:51:01;;;;;;;21.10;11.63;;;;;;;12.04;98.36;99745.09;5014027;28;20029;-43
2023/03/31 03:53:26;;;;;;;21.42;11.70;;;;;;;12.00;98.46;99739.44;5031814;28;20029;-45
2023/03/31 03:55:52;;;;;;;18.95;11.35;;;;;;;11.99;98.57;99727.53;5031572;28;20032;-49
2023/03/31 03:58:20;;;;;;;21.50;11.90;;;;;;;12.00;98.75;99723.59;5031235;28;20029;-44
2023/03/31 04:00:46;;;;;;;19.90;11.38;;;;;;;12.03;98.92;99722.13;5030139;28;20095;-46
2023/03/31 04:03:12;;;;;;;20.83;12.00;;;;;;;12.03;98.67;99711.03;5031859;28;20022;-46
2023/03/31 04:05:38;;;;;;;20.50;12.05;;;;;;;12.03;98.04;99702.72;5031546;28;20391;-47
2023/03/31 04:08:05;;;;;;;20.60;11.98;;;;;;;12.04;98.04;99701.56;5031630;28;20079;-48
2023/03/31 04:10:30;;;;;;;20.40;11.82;;;;;;;12.07;98.60;99695.31;5013893;28;20096;-47
2023/03/31 04:12:56;;;;;;;21.33;11.50;;;;;;;12.07;98.16;99687.00;5031520;28;20029;-47
2023/03/31 04:15:21;;;;;;;18.25;11.70;;;;;;;12.14;98.40;99687.22;5031504;28;20026;-46
2023/03/31 04:17:49;;;;;;;21.67;11.88;;;;;;;12.11;97.49;99673.25;5013810;28;20184;-48
2023/03/31 04:20:16;;;;;;;17.98;11.00;;;;;;;12.09;97.94;99670.84;5031534;28;20395;-45
2023/03/31 04:22:45;;;;;;;20.42;11.10;;;;;;;12.15;98.33;99668.66;5031453;28;20049;-45
2023/03/31 04:25:15;;;;;;;20.33;11.40;;;;;;;12.12;96.91;99659.06;5013689;28;20112;-43
2023/03/31 04:27:54;;;;;;;19.63;11.57;;;;;;;12.08;97.35;99652.59;5031454;28;20475;-45
2023/03/31 04:30:22;;;;;;;21.48;11.75;;;;;;;12.06;97.52;99646.56;5031371;28;20047;-45
2023/03/31 04:32:55;;;;;;;20.52;11.60;;;;;;;12.01;97.47;99632.94;5027457;28;20025;-46
2023/03/31 04:35:22;;;;;;;19.98;11.73;;;;;;;11.99;97.25;99632.47;5030916;28;20064;-48
2023/03/31 04:37:51;;;;;;;20.45;11.43;;;;;;;11.96;97.05;99633.13;5031151;28;20502;-45
2023/03/31 04:40:16;;;;;;;21.15;11.38;;;;;;;11.93;98.06;99620.78;5031270;28;20029;-47
2023/03/31 04:42:43;;;;;;;21.30;11.75;;;;;;;11.90;98.36;99615.13;5035178;28;20441;-46
2023/03/31 04:45:10;;;;;;;19.88;10.90;;;;;;;11.86;98.08;99615.81;5034865;28;20029;-43
2023/03/31 04:47:36;;;;;;;22.30;11.77;;;;;;;11.82;98.15;99608.53;5017011;28;20029;-45
2023/03/31 04:50:01;;;;;;;19.35;11.27;;;;;;;11.79;98.48;99593.41;5034761;28;20100;-44
2023/03/31 04:52:26;;;;;;;18.15;11.57;;;;;;;11.79;98.51;99589.84;5034817;28;20049;-46
2023/03/31 04:54:52;;;;;;;19.30;13.30;;;;;;;11.79;98.79;99581.53;5017152;28;20036;-48
2023/03/31 04:57:17;;;;;;;20.33;11.50;;;;;;;11.77;98.63;99581.84;5016862;28;20094;-48
2023/03/31 04:59:42;;;;;;;19.58;11.70;;;;;;;11.78;98.36;99579.91;5034800;28;20099;-48
2023/03/31 05:02:08;;;;;;;20.00;11.55;;;;;;;11.76;99.07;99571.91;5034734;28;20049;-48
2023/03/31 05:04:33;;;;;;;19.58;11.38;;;;;;;11.79;98.76;99571.25;5034843;28;20041;-44
2023/03/31 05:06:59;;;;;;;18.95;10.77;;;;;;;11.80;98.54;99561.78;5034683;28;20028;-46
2023/03/31 05:09:24;;;;;;;18.52;11.18;;;;;;;11.80;98.77;99558.22;5034546;28;20028;-44
2023/03/31 05:11:49;;;;;;;20.75;11.02;;;;;;;11.78;98.65;99560.50;5034584;28;20113;-46
2023/03/31 05:14:15;;;;;;;19.70;11.60;;;;;;;11.76;98.80;99548.97;5016648;28;20521;-46
2023/03/31 05:16:40;;;;;;;20.58;11.55;;;;;;;11.80;98.40;99547.94;5034258;28;20029;-47
2023/03/31 05:19:07;;;;;;;19.42;10.82;;;;;;;11.79;97.92;99545.50;5034382;28;20068;-45
2023/03/31 05:21:32;;;;;;;20.00;11.00;;;;;;;11.75;98.20;99541.81;5034202;28;20483;-47
2023/03/31 05:23:57;;;;;;;18.92;11.15;;;;;;;11.74;98.57;99523.56;5033923;28;20042;-44
2023/03/31 05:26:24;;;;;;;17.65;11.10;;;;;;;11.70;98.41;99526.22;5033968;28;20029;-45
2023/03/31 05:28:52;;;;;;;18.10;10.98;;;;;;;11.68;98.40;99523.81;5034273;28;20028;-45
2023/03/31 05:31:18;;;;;;;17.30;11.15;;;;;;;11.76;98.34;99515.72;5034029;28;20443;-46
2023/03/31 05:33:44;;;;;;;17.00;11.10;;;;;;;11.80;98.04;99502.78;5030653;28;20073;-46
2023/03/31 05:36:14;;;;;;;18.85;11.57;;;;;;;11.80;97.96;99506.38;5034269;28;20036;-47
2023/03/31 05:38:40;;;;;;;18.60;10.75;;;;;;;11.85;97.11;99505.31;5034106;28;20068;-45
2023/03/31 05:41:08;;;;;;;18.77;10.98;;;;;;;11.88;97.66;99501.03;5016166;28;20068;-48
2023/03/31 05:43:33;;;;;;;18.90;10.93;;;;;;;11.83;97.10;99488.22;5016110;28;20030;-46
2023/03/31 05:45:59;;;;;;;17.20;11.00;;;;;;;11.86;96.70;99501.41;5033938;28;20382;-43
2023/03/31 05:48:24;;;;;;;19.20;10.88;;;;;;;11.89;97.19;99491.56;5033913;28;20100;-44
2023/03/31 05:50:49;;;;;;;18.70;10.60;;;;;;;11.84;96.47;99487.06;5033854;28;20103;-48
2023/03/31 05:53:15;;;;;;;17.13;10.60;;;;;;;11.81;96.84;99485.00;5032710;28;20032;-47
2023/03/31 05:55:40;;;;;;;18.38;10.77;;;;;;;11.83;97.50;99479.91;5033630;28;20028;-44
2023/03/31 05:58:05;;;;;;;18.48;10.90;;;;;;;11.84;97.25;99487.91;5033484;28;20076;-45
2023/03/31 06:00:31;;;;;;;16.05;10.50;;;;;;;11.82;96.61;99481.88;5033582;28;20117;-47
2023/03/31 06:02:57;;;;;;;16.73;10.65;;;;;;;11.83;97.40;99485.47;5033529;28;20394;-45
2023/03/31 06:05:25;;;;;;;17.52;10.93;;;;;;;11.84;96.76;99481.53;5033515;28;20479;-47
2023/03/31 06:07:52;;;;;;;18.92;11.30;;;;;;;11.88;97.20;99479.69;5033199;28;20033;-48
2023/03/31 06:10:17;;;;;;;16.90;10.95;;;;;;;11.87;96.14;99483.63;5033314;28;20036;-45
2023/03/31 06:12:43;;;;;;;17.10;10.82;;;;;;;11.81;96.47;99477.50;5033321;28;20026;-47
2023/03/31 06:15:08;;;;;;;19.08;11.02;;;;;;;11.76;97.02;99472.19;5033070;28;20057;-47
2023/03/31 06:17:34;;;;;;;17.85;11.10;;;;;;;11.70;97.23;99459.72;5033008;28;20029;-48
2023/03/31 06:19:59;;;;;;;18.23;10.70;;;;;;;11.75;97.48;99472.53;5032967;28;20391;-44
2023/03/31 06:22:24;;;;;;;17.38;11.05;;;;;;;11.80;98.22;99473.13;5014851;28;20025;-48
2023/03/31 06:24:50;;;;;;;19.95;11.00;;;;;;;11.78;97.64;99460.78;5032973;28;20479;-48
2023/03/31 06:27:15;;;;;;;17.00;10.40;;;;;;;11.77;97.98;99453.59;5033085;28;20068;-45
2023/03/31 06:29:40;;;;;;;17.00;11.25;;;;;;;11.71;97.93;99461.34;5032767;28;20080;-47
2023/03/31 06:32:06;;;;;;;18.60;11.30;;;;;;;11.70;98.18;99446.69;5032873;28;20031;-49
2023/03/31 06:34:31;;;;;;;20.02;11.10;;;;;;;11.67;98.53;99441.03;5028061;28;20034;-47
2023/03/31 06:36:56;;;;;;;19.00;11.13;;;;;;;11.64;99.06;99444.50;5032479;28;20026;-45
2023/03/31 06:39:22;;;;;;;19.23;11.40;;;;;;;11.56;99.17;99443.47;5032756;28;20026;-45
2023/03/31 06:41:47;;;;;;;17.77;11.32;;;;;;;11.51;99.66;99450.03;5032857;28;20021;-47
2023/03/31 06:44:15;;;;;;;17.40;10.80;;;;;;;11.48;100.00;99447.16;5015021;28;20064;-47
2023/03/31 06:46:41;;;;;;;20.25;11.25;;;;;;;11.46;100.00;99443.94;5040612;28;20037;-44
2023/03/31 06:49:06;;;;;;;17.67;11.13;;;;;;;11.42;100.00;99435.50;5052447;28;20118;-46
2023/03/31 06:51:31;;;;;;;16.25;10.80;;;;;;;11.42;100.00;99420.88;5034616;28;20029;-46
2023/03/31 06:53:56;;;;;;;18.73;11.48;;;;;;;11.41;100.00;99420.06;5052595;28;20024;-45
2023/03/31 06:56:22;;;;;;;17.45;10.93;;;;;;;11.39;100.00;99412.09;5052568;28;20024;-46
2023/03/31 06:58:47;;;;;;;17.05;11.25;;;;;;;11.39;100.00;99414.88;5052557;28;20028;-46
2023/03/31 07:01:12;;;;;;;18.23;11.15;;;;;;;11.39;100.00;99419.59;5034436;28;20107;-47
2023/03/31 07:03:38;;;;;;;16.15;11.00;;;;;;;11.38;100.00;99421.56;5052037;28;20675;-49
2023/03/31 07:06:03;;;;;;;16.67;11.13;;;;;;;11.38;100.00;99424.31;5052129;28;20141;-49
2023/03/31 07:08:28;;;;;;;19.02;11.35;;;;;;;11.36;100.00;99421.09;5052118;28;20048;-45
2023/03/31 07:10:58;;;;;;;16.77;11.20;;;;;;;11.30;100.00;99402.28;5052324;28;20471;-45
2023/03/31 07:13:25;;;;;;;17.65;12.25;;;;;;;11.29;100.00;99428.38;5051946;28;20025;-43
2023/03/31 07:15:50;;;;;;;17.52;11.48;;;;;;;11.26;100.00;99423.53;5034210;28;20021;-47
2023/03/31 07:18:17;;;;;;;17.65;11.50;;;;;;;11.30;100.00;99414.19;5051880;28;20390;-48
2023/03/31 07:20:43;;;;;;;17.42;11.25;;;;;;;11.24;100.00;99398.97;5051943;28;20386;-49
2023/03/31 07:23:08;;;;;;;18.70;11.77;;;;;;;11.39;100.00;99394.66;5051653;28;20055;-44
2023/03/31 07:25:35;;;;;;;17.08;11.13;;;;;;;11.47;100.00;99387.41;5051807;28;20037;-45
2023/03/31 07:28:00;;;;;;;18.08;11.30;;;;;;;11.58;100.00;99396.03;5048496;28;20029;-46
2023/03/31 07:30:26;;;;;;;18.70;11.20;;;;;;;11.64;100.00;99389.09;5050727;28;20035;-46
2023/03/31 07:32:53;;;;;;;16.95;11.32;;;;;;;11.69;100.00;99389.69;5051594;28;20037;-46
2023/03/31 07:35:20;;;;;;;17.85;12.05;;;;;;;11.69;100.00;99386.91;5051843;28;20032;-47
2023/03/31 07:37:47;;;;;;;18.02;12.48;;;;;;;11.73;100.00;99370.38;5051988;28;20036;-46
2023/03/31 07:40:15;;;;;;;18.98;11.57;;;;;;;11.73;100.00;99375.09;5051669;28;20037;-43
2023/03/31 07:42:41;;;;;;;19.75;11.52;;;;;;;11.82;100.00;99379.38;5051671;28;20100;-48
2023/03/31 07:45:08;;;;;;;19.33;11.35;;;;;;;11.91;100.00;99373.66;5033972;28;20123;-43
2023/03/31 07:47:34;;;;;;;21.10;11.18;;;;;;;12.07;100.00;99370.19;5051595;28;20040;-46
2023/03/31 07:49:59;;;;;;;19.83;11.18;;;;;;;12.09;100.00;99367.88;5033589;28;20025;-46
2023/03/31 07:52:24;;;;;;;20.50;10.82;;;;;;;12.16;100.00;99366.09;5051554;28;20024;-45
2023/03/31 07:54:50;;;;;;;17.75;10.70;;;;;;;12.13;98.89;99360.47;5051612;28;20048;-45
2023/03/31 07:57:18;;;;;;;19.30;11.15;;;;;;;12.13;98.18;99366.84;5051333;28;20041;-44
2023/03/31 07:59:44;;;;;;;19.23;11.10;;;;;;;12.15;98.37;99361.72;5051485;28;20039;-43
2023/03/31 08:02:15;;;;;;;19.10;11.15;;;;;;;12.17;98.80;99358.63;5047514;28;20048;-46
2023/03/31 08:04:43;;;;;;;18.98;10.65;;;;;;;12.15;98.87;99363.69;5050436;28;20095;-43
2023/03/31 08:07:10;;;;;;;22.98;11.50;;;;;;;12.22;98.42;99369.44;5049966;28;20371;-46
2023/03/31 08:09:36;;;;;;;21.88;11.30;;;;;;;12.24;99.23;99357.97;5050094;28;20053;-45
2023/03/31 08:12:02;;;;;;;21.15;11.00;;;;;;;12.33;98.63;99353.09;5050023;28;20124;-45
2023/03/31 08:14:27;;;;;;;18.75;11.18;;;;;;;12.36;98.52;99355.16;5049835;28;20562;-43
2023/03/31 08:16:54;;;;;;;19.85;11.73;;;;;;;12.41;98.06;99354.09;5052392;28;20036;-43
2023/03/31 08:19:21;;;;;;;18.95;11.68;;;;;;;12.49;98.36;99353.13;5053335;28;20128;-44
2023/03/31 08:21:46;;;;;;;19.73;10.70;;;;;;;12.57;98.63;99352.13;5054318;28;20824;-43
2023/03/31 08:24:11;;;;;;;21.80;11.10;;;;;;;12.55;97.92;99348.94;5049889;28;20049;-43
2023/03/31 08:26:37;;;;;;;22.90;11.60;;;;;;;12.70;99.39;99349.28;5054042;28;20116;-44
2023/03/31 08:29:03;;;;;;;20.52;11.60;;;;;;;12.72;98.30;99344.19;5052991;28;20477;-43
2023/03/31 08:31:29;;;;;;;23.05;11.40;;;;;;;12.73;98.16;99335.50;5053724;28;20048;-43
2023/03/31 08:33:55;;;;;;;23.35;11.57;;;;;;;12.79;98.40;99347.97;5053800;28;20029;-46
2023/03/31 08:36:21;;;;;;;23.42;12.30;;;;;;;12.80;98.92;99341.22;5053537;28;20394;-45
2023/03/31 08:38:48;;;;;;;19.17;11.65;;;;;;;12.90;98.35;99345.44;5053734;28;20067;-44
2023/03/31 08:41:39;;;;;;;20.13;11.30;;;;;;;13.03;98.13;99346.16;5053723;28;20068;-45
2023/03/31 08:44:12;;;;;;;22.15;12.02;;;;;;;13.13;97.38;99344.00;5042179;28;20136;-46
2023/03/31 08:46:38;;;;;;;21.88;11.55;;;;;;;13.24;96.31;99340.28;5053683;28;20033;-46
2023/03/31 08:49:05;;;;;;;21.30;11.70;;;;;;;13.33;96.52;99342.88;5053286;28;20489;-46
2023/03/31 08:51:40;;;;;;;21.52;11.82;;;;;;;13.38;nan;99336.25;5053226;28;20601;-47
2023/03/31 08:54:19;;;;;;;23.88;11.80;;;;;;;13.51;94.86;99337.75;5053473;28;20475;-44
2023/03/31 08:56:48;;;;;;;24.15;12.88;;;;;;;13.56;94.46;99331.94;5053393;28;20765;-46
2023/03/31 08:59:35;;;;;;;21.75;11.70;;;;;;;13.67;95.19;99342.47;5035461;28;20124;-49
2023/03/31 09:02:10;;;;;;;19.30;11.02;;;;;;;13.83;92.44;99336.84;5052765;28;20021;-43
2023/03/31 09:04:41;;;;;;;20.42;11.38;;;;;;;13.93;93.49;99336.28;5034369;28;20067;-44
2023/03/31 09:07:30;;;;;;;23.60;12.10;;;;;;;14.03;92.31;99332.09;5051940;28;20099;-44
2023/03/31 09:10:08;;;;;;;23.55;11.65;;;;;;;14.06;92.85;99333.31;5051945;28;20151;-44
2023/03/31 09:12:48;;;;;;;23.50;11.30;;;;;;;14.17;91.52;99331.56;5051372;28;20086;-45
2023/03/31 09:15:24;;;;;;;21.30;11.57;;;;;;;14.18;90.56;99330.41;5051866;28;20063;-44
2023/03/31 09:17:51;;;;;;;21.73;11.38;;;;;;;14.32;89.58;99318.72;5052586;28;20050;-47
2023/03/31 09:20:23;;;;;;;23.05;11.68;;;;;;;14.35;89.50;99324.38;5052936;28;20036;-46
2023/03/31 09:22:55;;;;;;;21.17;11.55;;;;;;;14.39;89.32;99320.84;5034513;28;20174;-46
2023/03/31 09:25:33;;;;;;;24.08;12.18;;;;;;;14.55;91.29;99304.03;5052133;28;20552;-44
2023/03/31 09:28:01;;;;;;;23.25;11.80;;;;;;;14.68;90.71;99316.63;5050241;28;20037;-45
2023/03/31 09:30:33;;;;;;;24.35;12.02;;;;;;;14.70;87.83;99303.13;5052693;28;20037;-44
2023/03/31 09:33:10;;;;;;;26.45;12.60;;;;;;;14.87;92.82;99310.19;5034125;28;20377;-44
2023/03/31 09:35:36;;;;;;;24.42;12.52;;;;;;;14.80;84.35;99299.72;5052571;28;20083;-42
2023/03/31 09:38:02;;;;;;;22.35;12.20;;;;;;;14.67;83.81;99309.44;5030957;28;20021;-42
2023/03/31 09:40:28;;;;;;;23.08;11.70;;;;;;;14.52;83.71;99313.91;5052104;28;20036;-42
2023/03/31 09:42:58;;;;;;;25.70;12.25;;;;;;;14.44;83.96;99309.41;5052659;28;20086;-42
2023/03/31 09:45:24;;;;;;;22.35;11.65;;;;;;;14.31;82.76;99308.78;5052643;28;20431;-43
2023/03/31 09:47:53;;;;;;;22.35;12.63;;;;;;;14.17;83.29;99287.06;5052698;28;20088;-43
2023/03/31 09:50:20;;;;;;;23.83;12.80;;;;;;;14.12;82.99;99304.06;5052530;28;20029;-43
2023/03/31 09:52:50;;;;;;;25.83;12.68;;;;;;;14.05;84.22;99290.81;5052395;28;20462;-43
2023/03/31 09:55:21;;;;;;;24.67;12.65;;;;;;;14.07;83.19;99305.16;5054508;28;20087;-42
2023/03/31 09:57:46;;;;;;;22.25;12.50;;;;;;;14.04;83.03;99303.13;5071550;28;20064;-42
2023/03/31 10:00:17;;;;;;;23.02;12.75;;;;;;;14.02;84.52;99297.13;5052880;28;20161;-42
2023/03/31 10:02:54;;;;;;;22.73;12.45;;;;;;;13.93;83.34;99288.19;5071043;28;20025;-42
2023/03/31 10:05:35;;;;;;;22.02;12.45;;;;;;;14.01;82.88;99287.16;5070489;28;20028;-46
2023/03/31 10:08:18;;;;;;;20.63;12.57;;;;;;;14.10;84.07;99284.94;5070634;28;20032;-41
2023/03/31 10:10:54;;;;;;;23.60;13.32;;;;;;;14.09;83.43;99283.34;5070515;28;20115;-42
2023/03/31 10:13:28;;;;;;;25.58;12.70;;;;;;;14.16;81.65;99283.50;5070652;28;20036;-44
2023/03/31 10:16:00;;;;;;;22.13;12.57;;;;;;;14.15;80.68;99276.31;5052114;28;20028;-43
2023/03/31 10:18:37;;;;;;;21.77;12.13;;;;;;;14.13;81.01;99275.88;5070391;28;20036;-42
2023/03/31 10:21:05;;;;;;;23.25;12.82;;;;;;;14.13;80.41;99277.84;5070696;28;20040;-42
2023/03/31 10:23:32;;;;;;;24.00;12.52;;;;;;;14.09;81.14;99272.22;5070529;28;20044;-43
2023/03/31 10:25:59;;;;;;;21.27;12.70;;;;;;;14.15;79.97;99278.28;5070787;28;20036;-43
2023/03/31 10:28:25;;;;;;;20.58;12.02;;;;;;;14.12;79.61;99270.69;5052429;28;20032;-44
2023/03/31 10:30:53;;;;;;;21.42;12.30;;;;;;;14.11;80.61;99267.09;5052962;28;20039;-42
2023/03/31 10:33:23;;;;;;;21.02;11.93;;;;;;;14.14;80.20;99268.31;5070370;28;20017;-42
2023/03/31 10:35:55;;;;;;;21.55;12.48;;;;;;;14.11;80.79;99253.19;5070383;28;20093;-43
2023/03/31 10:38:39;;;;;;;20.25;12.30;;;;;;;14.22;79.80;99266.50;5069173;28;20055;-43
2023/03/31 10:41:05;;;;;;;;;;;;;;;14.25;80.25;99263.78;5069975;28;20082;-42
2023/03/31 10:43:41;;;;;;;22.40;12.65;;;;;;;14.23;79.41;99263.34;5069410;28;19912;-43
2023/03/31 10:46:08;;;;;;;19.88;11.90;;;;;;;14.26;79.13;99264.59;5070000;28;20028;-43
2023/03/31 10:48:37;;;;;;;22.83;12.52;;;;;;;14.29;80.23;99277.75;5053181;28;20033;-44
2023/03/31 10:51:10;;;;;;;19.35;12.15;;;;;;;14.26;79.37;99268.16;5071118;28;20032;-42
2023/03/31 10:53:40;;;;;;;20.85;12.18;;;;;;;14.24;78.80;99264.16;5071079;28;20086;-50
2023/03/31 10:56:12;;;;;;;19.65;11.98;;;;;;;14.24;78.75;99256.59;5070833;28;20032;-42
2023/03/31 10:59:05;;;;;;;21.17;12.35;;;;;;;14.32;78.80;99257.53;5071009;28;20032;-42
2023/03/31 11:01:56;;;;;;;22.33;12.05;;;;;;;14.39;80.03;99254.88;5070753;28;20513;-42
2023/03/31 11:04:40;;;;;;;21.63;12.30;;;;;;;14.44;78.84;99242.63;5070706;28;20021;-42
2023/03/31 11:07:29;;;;;;;21.98;12.10;;;;;;;14.48;78.24;99240.72;5070860;28;20165;-43
2023/03/31 11:10:23;;;;;;;20.70;11.60;;;;;;;14.47;78.92;99226.00;5070548;28;20024;-42
2023/03/31 11:12:59;;;;;;;19.75;11.60;;;;;;;14.49;78.00;99231.22;5070451;28;20497;-42
2023/03/31 11:15:32;;;;;;;20.55;12.50;;;;;;;14.47;77.98;99239.13;5070331;28;20040;-42
2023/03/31 11:18:26;;;;;;;22.42;12.23;;;;;;;14.45;79.26;99238.69;5070466;28;20738;-42
2023/03/31 11:21:21;;;;;;;23.08;12.18;;;;;;;14.45;80.20;99242.25;5070672;28;20033;-42
2023/03/31 11:24:08;;;;;;;23.20;12.05;;;;;;;14.46;79.15;99241.06;5070608;28;20052;-43
2023/03/31 11:26:39;;;;;;;19.77;12.18;;;;;;;14.49;80.81;99232.00;5070752;28;20070;-42
2023/03/31 11:29:29;;;;;;;21.00;12.88;;;;;;;14.48;80.97;99232.38;5069414;28;20044;-42